Time;durP1;ratioP1;P1;durP2;ratioP2;P2;SDS_P1;SDS_P2;PMS_P1;PMS_P2;Temp;Humidity;BMP_temperature;BMP_pressure;BME280_temperature;BME280_humidity;BME280_pressure;Samples;Min_cycle;Max_cycle;Signal;HPM_P1;HPM_P2
2022/09/09 00:02:03;;;;;;;1.70;0.30;;;;;;;;;;5053472;28;20083;-62
2022/09/09 00:04:35;;;;;;;0.52;0.32;;;17.70;99.90;;;;;;5053349;28;20416;-62
2022/09/09 00:07:03;;;;;;;0.90;0.45;;;17.80;99.90;;;;;;5052923;28;20045;-62
2022/09/09 00:09:37;;;;;;;3.30;0.50;;;17.50;99.90;;;;;;5053627;28;20063;-62
2022/09/09 00:12:15;;;;;;;1.90;0.57;;;17.50;99.90;;;;;;5053636;28;20435;-62
2022/09/09 00:15:02;;;;;;;3.90;0.60;;;17.60;99.90;;;;;;5056520;28;20119;-62
2022/09/09 00:17:35;;;;;;;1.02;0.30;;;17.60;99.90;;;;;;5057540;28;20045;-62
2022/09/09 00:20:16;;;;;;;1.23;0.40;;;17.50;99.90;;;;;;5057697;28;20044;-62
2022/09/09 00:23:13;;;;;;;3.47;0.47;;;17.60;99.90;;;;;;5057415;28;20511;-62
2022/09/09 00:25:59;;;;;;;0.50;0.30;;;17.40;99.90;;;;;;5055134;28;20055;-62
2022/09/09 00:28:32;;;;;;;2.00;0.50;;;17.30;99.90;;;;;;5057300;28;20033;-62
2022/09/09 00:31:16;;;;;;;3.25;0.80;;;17.20;99.90;;;;;;5057131;28;20041;-61
2022/09/09 00:33:43;;;;;;;1.00;0.45;;;17.10;99.90;;;;;;5057207;28;20535;-62
2022/09/09 00:36:18;;;;;;;1.75;0.43;;;17.10;99.90;;;;;;5057118;28;20076;-62
2022/09/09 00:38:51;;;;;;;2.72;0.60;;;17.00;99.90;;;;;;5057249;28;20516;-62
2022/09/09 00:41:32;;;;;;;0.52;0.30;;;16.90;99.90;;;;;;5057286;28;20037;-62
2022/09/09 00:44:03;;;;;;;2.50;0.70;;;16.80;99.90;;;;;;5056941;28;20110;-63
2022/09/09 00:46:38;;;;;;;0.60;0.40;;;16.70;99.90;;;;;;5057116;28;20393;-62
2022/09/09 00:49:25;;;;;;;3.00;1.42;;;16.80;99.90;;;;;;5056991;28;20489;-62
2022/09/09 00:52:03;;;;;;;2.70;0.47;;;16.70;99.90;;;;;;5057085;28;20127;-62
2022/09/09 00:54:52;;;;;;;1.30;0.45;;;16.80;99.90;;;;;;5056579;28;20492;-62
2022/09/09 00:57:28;;;;;;;1.35;0.52;;;16.80;99.90;;;;;;5056565;28;20049;-62
2022/09/09 01:00:35;;;;;;;1.90;0.40;;;16.80;99.90;;;;;;5056780;28;20120;-62
2022/09/09 01:03:24;;;;;;;0.60;0.40;;;16.80;99.90;;;;;;5056562;28;20463;-62
2022/09/09 01:06:04;;;;;;;1.10;0.40;;;16.80;99.90;;;;;;5056310;28;20036;-62
2022/09/09 01:08:33;;;;;;;1.40;0.52;;;16.70;99.90;;;;;;5056303;28;20033;-62
2022/09/09 01:10:59;;;;;;;1.67;0.50;;;16.70;99.90;;;;;;5056164;28;20447;-62
2022/09/09 01:13:30;;;;;;;2.08;0.50;;;16.60;99.90;;;;;;5056288;28;20485;-62
2022/09/09 01:16:08;;;;;;;0.85;0.57;;;16.60;99.90;;;;;;5056264;28;20051;-62
2022/09/09 01:18:43;;;;;;;0.73;0.30;;;16.70;99.90;;;;;;5056385;28;20053;-62
2022/09/09 01:21:25;;;;;;;0.77;0.30;;;16.70;99.90;;;;;;5056449;28;20044;-62
2022/09/09 01:24:41;;;;;;;2.42;0.60;;;16.70;99.90;;;;;;5056186;28;20040;-62
2022/09/09 01:27:09;;;;;;;2.40;0.45;;;16.70;99.90;;;;;;5013805;28;20119;-64
2022/09/09 01:29:36;;;;;;;1.80;0.50;;;16.60;99.90;;;;;;5048036;28;20072;-62
2022/09/09 01:32:40;;;;;;;1.00;0.40;;;16.60;99.90;;;;;;5056216;28;20149;-62
2022/09/09 01:35:10;;;;;;;0.55;0.40;;;16.60;99.90;;;;;;5053658;28;20492;-62
2022/09/09 01:37:35;;;;;;;5.72;0.85;;;16.60;99.90;;;;;;5055966;28;20044;-62
2022/09/09 01:40:02;;;;;;;1.27;0.80;;;16.40;99.90;;;;;;5056043;28;20043;-62
2022/09/09 01:42:27;;;;;;;0.63;0.50;;;16.40;99.90;;;;;;5055915;28;20044;-62
2022/09/09 01:44:54;;;;;;;1.25;0.50;;;16.40;99.90;;;;;;5055929;28;20041;-62
2022/09/09 01:47:20;;;;;;;3.58;0.77;;;16.50;99.90;;;;;;5056022;28;20051;-62
2022/09/09 01:49:45;;;;;;;3.85;0.70;;;16.60;99.90;;;;;;5055935;28;20112;-62
2022/09/09 01:52:11;;;;;;;1.08;0.60;;;16.60;99.90;;;;;;5055733;28;20069;-62
2022/09/09 01:54:37;;;;;;;1.02;0.50;;;16.50;99.90;;;;;;5055563;28;20029;-62
2022/09/09 01:57:18;;;;;;;2.65;0.50;;;16.50;99.90;;;;;;5055521;28;20053;-62
2022/09/09 02:00:10;;;;;;;3.85;0.50;;;16.60;99.90;;;;;;5055638;28;20041;-62
2022/09/09 02:03:03;;;;;;;4.38;0.68;;;16.60;99.90;;;;;;5055985;28;20033;-62
2022/09/09 02:05:47;;;;;;;3.78;0.73;;;16.60;99.90;;;;;;5055137;28;20519;-62
2022/09/09 02:08:48;;;;;;;8.20;0.75;;;16.60;99.90;;;;;;5055548;28;20148;-62
2022/09/09 02:11:16;;;;;;;0.95;0.50;;;16.60;99.90;;;;;;5033038;28;20599;-62
2022/09/09 02:13:44;;;;;;;2.83;0.50;;;16.60;99.90;;;;;;5055255;28;20047;-62
2022/09/09 02:16:34;;;;;;;0.93;0.50;;;16.50;99.90;;;;;;5055362;28;20124;-62
2022/09/09 02:19:26;;;;;;;2.03;0.50;;;16.50;99.90;;;;;;5055356;28;20044;-62
2022/09/09 02:21:57;;;;;;;1.00;0.60;;;16.50;99.90;;;;;;5055020;28;20066;-62
2022/09/09 02:24:23;;;;;;;1.15;0.60;;;16.50;99.90;;;;;;5055117;28;20036;-62
2022/09/09 02:26:54;;;;;;;2.15;1.05;;;16.50;99.90;;;;;;5055096;28;20094;-62
2022/09/09 02:29:27;;;;;;;1.63;0.50;;;16.50;99.90;;;;;;5055217;28;20504;-62
2022/09/09 02:31:58;;;;;;;1.90;0.73;;;16.60;99.90;;;;;;5055084;28;20037;-62
2022/09/09 02:34:25;;;;;;;2.70;0.60;;;16.50;99.90;;;;;;5054896;28;20078;-62
2022/09/09 02:36:54;;;;;;;2.88;0.60;;;16.50;99.90;;;;;;5052133;28;20512;-62
2022/09/09 02:39:20;;;;;;;2.22;0.80;;;16.50;99.90;;;;;;5054777;28;20124;-63
2022/09/09 02:41:47;;;;;;;1.48;0.63;;;16.50;99.90;;;;;;5054784;28;20052;-63
2022/09/09 02:44:19;;;;;;;0.95;0.70;;;16.50;99.90;;;;;;5054779;28;20488;-62
2022/09/09 02:46:56;;;;;;;2.10;0.40;;;16.50;99.90;;;;;;5054558;28;20136;-62
2022/09/09 02:49:43;;;;;;;3.65;0.40;;;16.40;99.90;;;;;;5054602;28;20036;-62
2022/09/09 02:52:16;;;;;;;2.25;0.60;;;16.40;99.90;;;;;;5054677;28;20848;-62
2022/09/09 02:54:43;;;;;;;1.17;0.60;;;16.40;99.90;;;;;;5054633;28;20047;-62
2022/09/09 02:57:27;;;;;;;1.17;0.50;;;16.40;99.90;;;;;;5054366;28;20045;-62
2022/09/09 02:59:56;;;;;;;6.03;0.90;;;16.40;99.90;;;;;;5054551;28;20044;-62
2022/09/09 03:02:22;;;;;;;0.70;0.50;;;16.20;99.90;;;;;;5054373;28;20487;-62
2022/09/09 03:04:51;;;;;;;1.45;0.60;;;16.20;99.90;;;;;;5054495;28;20076;-62
2022/09/09 03:07:20;;;;;;;1.88;0.68;;;16.20;99.90;;;;;;5054395;28;20041;-62
2022/09/09 03:09:47;;;;;;;4.28;0.70;;;16.20;99.90;;;;;;5054105;28;20099;-63
2022/09/09 03:12:13;;;;;;;1.10;0.70;;;16.10;99.90;;;;;;5054054;28;20048;-62
2022/09/09 03:14:39;;;;;;;1.08;0.60;;;16.10;99.90;;;;;;5054118;28;20087;-62
2022/09/09 03:17:06;;;;;;;0.60;0.50;;;16.00;99.90;;;;;;5046722;28;20523;-62
2022/09/09 03:19:32;;;;;;;1.67;0.40;;;16.00;99.90;;;;;;5032523;28;20041;-62
2022/09/09 03:21:59;;;;;;;1.95;0.80;;;15.90;99.90;;;;;;5032641;28;20087;-62
2022/09/09 03:24:26;;;;;;;2.13;0.77;;;16.00;99.90;;;;;;5034183;28;20052;-63
2022/09/09 03:26:52;;;;;;;1.85;0.70;;;15.90;99.90;;;;;;5033983;28;20114;-62
2022/09/09 03:29:18;;;;;;;2.72;0.60;;;16.00;99.90;;;;;;5031857;28;20037;-62
2022/09/09 03:31:45;;;;;;;0.98;0.60;;;15.90;99.90;;;;;;5032051;28;20052;-63
2022/09/09 03:34:11;;;;;;;3.67;0.75;;;15.80;99.90;;;;;;5032005;28;20037;-66
2022/09/09 03:36:37;;;;;;;3.85;0.70;;;15.80;99.90;;;;;;5031980;28;20102;-62
2022/09/09 03:39:03;;;;;;;1.65;0.80;;;15.80;99.90;;;;;;5031493;28;20535;-65
2022/09/09 03:41:30;;;;;;;1.23;0.70;;;15.70;99.90;;;;;;5032472;28;20049;-62
2022/09/09 03:43:55;;;;;;;3.97;0.80;;;15.70;99.90;;;;;;5034479;28;20041;-63
2022/09/09 03:46:24;;;;;;;1.80;0.70;;;15.60;99.90;;;;;;5044061;28;20156;-62
2022/09/09 03:48:51;;;;;;;3.95;1.00;;;15.60;99.90;;;;;;5045974;28;20044;-64
2022/09/09 03:51:18;;;;;;;1.60;0.60;;;15.60;99.90;;;;;;5051659;28;20072;-62
2022/09/09 03:53:44;;;;;;;2.45;0.77;;;15.40;99.90;;;;;;5051777;28;20400;-62
2022/09/09 03:56:10;;;;;;;4.82;0.88;;;15.30;99.90;;;;;;5051913;28;20073;-61
2022/09/09 03:58:37;;;;;;;1.08;0.50;;;15.30;99.90;;;;;;5053678;28;20452;-62
2022/09/09 04:01:06;;;;;;;1.30;0.50;;;15.40;99.90;;;;;;5053787;28;20060;-62
2022/09/09 04:03:32;;;;;;;2.03;0.90;;;15.20;99.90;;;;;;5053676;28;20048;-62
2022/09/09 04:05:59;;;;;;;1.67;0.82;;;15.20;99.90;;;;;;5053579;28;20033;-64
2022/09/09 04:08:26;;;;;;;3.72;0.88;;;15.30;99.90;;;;;;5053446;28;20048;-62
2022/09/09 04:10:52;;;;;;;2.05;0.73;;;15.20;99.90;;;;;;5053501;28;20115;-62
2022/09/09 04:13:19;;;;;;;2.35;0.70;;;15.10;99.90;;;;;;5053568;28;20041;-62
2022/09/09 04:15:51;;;;;;;4.25;0.60;;;15.00;99.90;;;;;;5053534;28;20059;-62
2022/09/09 04:18:17;;;;;;;3.97;0.88;;;14.90;99.90;;;;;;5053524;28;20132;-62
2022/09/09 04:20:43;;;;;;;2.00;0.98;;;14.90;99.90;;;;;;5053475;28;20057;-62
2022/09/09 04:23:09;;;;;;;2.72;0.80;;;14.90;99.90;;;;;;5053523;28;20500;-62
2022/09/09 04:25:35;;;;;;;1.30;0.60;;;14.70;99.90;;;;;;5053424;28;20037;-62
2022/09/09 04:28:02;;;;;;;1.50;0.50;;;14.70;99.90;;;;;;5053399;28;20366;-62
2022/09/09 04:30:28;;;;;;;2.53;0.75;;;14.80;99.90;;;;;;5053439;28;20048;-62
2022/09/09 04:32:54;;;;;;;1.67;0.60;;;14.70;99.90;;;;;;5053365;28;20040;-62
2022/09/09 04:35:20;;;;;;;4.15;0.75;;;14.80;99.90;;;;;;5053178;28;20044;-62
2022/09/09 04:37:46;;;;;;;1.88;0.75;;;14.80;99.90;;;;;;5053193;28;20401;-62
2022/09/09 04:40:12;;;;;;;5.00;0.70;;;14.80;99.90;;;;;;5053155;28;20045;-62
2022/09/09 04:42:39;;;;;;;1.80;0.70;;;14.80;99.90;;;;;;5053398;28;20546;-62
2022/09/09 04:45:06;;;;;;;0.93;0.68;;;14.90;99.90;;;;;;5053373;28;20036;-62
2022/09/09 04:47:35;;;;;;;1.33;0.57;;;14.80;99.90;;;;;;5052607;28;20636;-62
2022/09/09 04:50:00;;;;;;;5.57;0.70;;;14.90;99.90;;;;;;5053046;28;20049;-62
2022/09/09 04:52:26;;;;;;;2.15;0.88;;;14.90;99.90;;;;;;5051814;28;20046;-63
2022/09/09 04:54:53;;;;;;;1.58;0.70;;;14.90;99.90;;;;;;5052137;28;20041;-63
2022/09/09 04:57:19;;;;;;;1.17;0.80;;;15.00;99.90;;;;;;5052838;28;20078;-63
2022/09/09 04:59:45;;;;;;;2.47;0.70;;;14.90;99.90;;;;;;5051748;28;20407;-64
2022/09/09 05:02:12;;;;;;;1.70;0.77;;;14.80;99.90;;;;;;5055589;28;20120;-63
2022/09/09 05:04:37;;;;;;;2.78;0.70;;;14.80;99.90;;;;;;5056093;28;20041;-63
2022/09/09 05:07:03;;;;;;;2.88;0.70;;;14.80;99.90;;;;;;5056258;28;20041;-63
2022/09/09 05:09:30;;;;;;;2.75;0.98;;;14.80;99.90;;;;;;5056140;28;20048;-63
2022/09/09 05:11:56;;;;;;;2.05;0.85;;;14.80;99.90;;;;;;5056114;28;20033;-62
2022/09/09 05:14:22;;;;;;;2.47;0.77;;;14.80;99.90;;;;;;5056445;28;20052;-64
2022/09/09 05:16:49;;;;;;;1.63;1.00;;;14.90;99.90;;;;;;5056225;28;20048;-63
2022/09/09 05:19:15;;;;;;;5.43;0.75;;;14.90;99.90;;;;;;5056493;28;20489;-63
2022/09/09 05:21:41;;;;;;;2.25;0.75;;;14.80;99.90;;;;;;5056463;28;20075;-63
2022/09/09 05:24:10;;;;;;;4.22;0.90;;;14.70;99.90;;;;;;5056336;28;20581;-63
2022/09/09 05:26:36;;;;;;;4.65;1.02;;;14.70;99.90;;;;;;5055407;28;20035;-63
2022/09/09 05:29:02;;;;;;;3.05;0.82;;;14.80;99.90;;;;;;5055226;28;20044;-65
2022/09/09 05:31:30;;;;;;;3.17;0.90;;;14.90;99.90;;;;;;5054721;28;20032;-63
2022/09/09 05:33:56;;;;;;;3.83;1.15;;;14.90;99.90;;;;;;5053769;28;20049;-64
2022/09/09 05:36:23;;;;;;;1.30;0.63;;;14.90;99.90;;;;;;5053698;28;20048;-65
2022/09/09 05:38:50;;;;;;;0.88;0.47;;;14.90;99.90;;;;;;5053376;28;20408;-63
2022/09/09 05:41:17;;;;;;;4.53;0.90;;;14.80;99.90;;;;;;5054134;28;20057;-63
2022/09/09 05:43:44;;;;;;;2.75;0.85;;;14.70;99.90;;;;;;5054294;28;20428;-63
2022/09/09 05:46:12;;;;;;;4.45;1.23;;;14.70;99.90;;;;;;5055408;28;20059;-63
2022/09/09 05:48:42;;;;;;;1.17;0.60;;;14.70;99.90;;;;;;5056075;28;20041;-63
2022/09/09 05:51:12;;;;;;;3.83;1.00;;;14.70;99.90;;;;;;5055801;28;20040;-64
2022/09/09 05:53:38;;;;;;;2.72;0.70;;;14.80;99.90;;;;;;5055764;28;20067;-65
2022/09/09 05:56:14;;;;;;;3.65;0.70;;;14.90;99.90;;;;;;5054276;28;20049;-63
2022/09/09 05:58:40;;;;;;;4.65;0.85;;;15.00;99.90;;;;;;5053533;28;20131;-63
2022/09/09 06:01:08;;;;;;;0.85;0.50;;;15.10;99.90;;;;;;5053602;28;20124;-66
2022/09/09 06:03:38;;;;;;;1.92;0.50;;;15.40;99.90;;;;;;5053574;28;20045;-64
2022/09/09 06:06:06;;;;;;;4.87;0.87;;;15.50;99.90;;;;;;5053579;28;20614;-64
2022/09/09 06:08:33;;;;;;;1.83;0.65;;;15.70;99.90;;;;;;5053555;28;20044;-64
2022/09/09 06:11:10;;;;;;;1.77;0.70;;;15.90;99.90;;;;;;5054310;28;20042;-63
2022/09/09 06:13:38;;;;;;;2.88;0.80;;;16.00;99.90;;;;;;5055581;28;20033;-63
2022/09/09 06:16:11;;;;;;;1.70;0.70;;;16.10;99.90;;;;;;5055455;28;20488;-63
2022/09/09 06:18:38;;;;;;;1.95;0.75;;;16.10;99.90;;;;;;5055151;28;20052;-63
2022/09/09 06:21:11;;;;;;;1.83;0.47;;;16.00;99.90;;;;;;5055115;28;20040;-63
2022/09/09 06:23:40;;;;;;;2.58;1.08;;;16.00;99.90;;;;;;5054236;28;20033;-66
2022/09/09 06:26:25;;;;;;;3.38;1.05;;;16.20;99.90;;;;;;5054629;28;20190;-66
2022/09/09 06:28:52;;;;;;;2.65;1.08;;;16.50;99.90;;;;;;5055076;28;20542;-64
2022/09/09 06:31:21;;;;;;;2.63;0.88;;;16.60;99.90;;;;;;5055167;28;20040;-64
2022/09/09 06:33:49;;;;;;;3.05;0.90;;;17.20;99.90;;;;;;5054937;28;20067;-64
2022/09/09 06:36:21;;;;;;;3.45;0.80;;;17.00;99.90;;;;;;5054874;28;20045;-64
2022/09/09 06:38:47;;;;;;;1.15;0.70;;;16.80;99.90;;;;;;5054819;28;20171;-64
2022/09/09 06:41:16;;;;;;;1.88;0.65;;;17.10;99.90;;;;;;5054764;28;20143;-64
2022/09/09 06:43:42;;;;;;;3.40;0.77;;;17.40;99.90;;;;;;5054792;28;20063;-64
2022/09/09 06:46:13;;;;;;;1.75;0.50;;;17.60;99.90;;;;;;5054868;28;20052;-64
2022/09/09 06:48:42;;;;;;;2.47;0.60;;;17.70;99.90;;;;;;5054585;28;20029;-64
2022/09/09 06:51:16;;;;;;;2.05;0.40;;;18.20;99.90;;;;;;5054655;28;20047;-64
2022/09/09 06:53:44;;;;;;;3.80;0.88;;;18.70;99.90;;;;;;5054681;28;20037;-64
2022/09/09 06:56:10;;;;;;;1.75;0.63;;;19.00;99.90;;;;;;5054634;28;20519;-65
2022/09/09 06:58:36;;;;;;;2.25;0.93;;;18.70;99.90;;;;;;5054689;28;20073;-64
2022/09/09 07:01:06;;;;;;;2.42;0.80;;;19.00;99.90;;;;;;5054460;28;20396;-65
2022/09/09 07:03:32;;;;;;;2.97;0.57;;;19.20;99.90;;;;;;5054507;28;20055;-64
2022/09/09 07:05:59;;;;;;;1.25;0.60;;;19.40;99.90;;;;;;5054461;28;20041;-65
2022/09/09 07:08:25;;;;;;;1.83;0.55;;;19.20;99.90;;;;;;5054407;28;20123;-64
2022/09/09 07:10:55;;;;;;;1.00;0.50;;;18.60;99.90;;;;;;5054253;28;20083;-65
2022/09/09 07:13:25;;;;;;;1.63;0.52;;;18.50;99.90;;;;;;5054272;28;20098;-65
2022/09/09 07:15:51;;;;;;;2.65;0.80;;;18.90;99.90;;;;;;5054199;28;20068;-64
2022/09/09 07:18:18;;;;;;;3.35;0.65;;;19.30;99.90;;;;;;5054176;28;20048;-65
2022/09/09 07:20:54;;;;;;;7.15;0.50;;;19.90;99.90;;;;;;5054237;28;20449;-64
2022/09/09 07:23:23;;;;;;;1.55;0.47;;;19.40;99.90;;;;;;5053766;28;20047;-65
2022/09/09 07:25:51;;;;;;;4.13;0.70;;;;;;;;;;5054029;28;20040;-65
2022/09/09 07:28:17;;;;;;;1.95;0.57;;;20.00;99.90;;;;;;5053651;28;20378;-64
2022/09/09 07:30:43;;;;;;;1.20;0.57;;;20.50;99.90;;;;;;5054110;28;20031;-64
2022/09/09 07:33:09;;;;;;;2.88;0.68;;;20.10;99.90;;;;;;5054084;28;20056;-65
2022/09/09 07:35:36;;;;;;;1.35;0.70;;;19.60;99.90;;;;;;5053935;28;20036;-64
2022/09/09 07:38:06;;;;;;;3.35;0.73;;;19.40;99.90;;;;;;5053940;28;20060;-64
2022/09/09 07:40:33;;;;;;;2.13;0.50;;;19.30;99.90;;;;;;5054197;28;20033;-64
2022/09/09 07:43:00;;;;;;;2.88;0.70;;;18.90;99.90;;;;;;5053996;28;20091;-64
2022/09/09 07:45:28;;;;;;;2.00;0.65;;;19.00;99.90;;;;;;5054146;28;20048;-64
2022/09/09 07:47:55;;;;;;;1.30;0.70;;;19.50;99.90;;;;;;5053926;28;20400;-65
2022/09/09 07:50:21;;;;;;;2.10;0.63;;;19.90;99.90;;;;;;5053883;28;20044;-64
2022/09/09 07:52:47;;;;;;;2.90;0.60;;;20.10;99.90;;;;;;5053731;28;20408;-64
2022/09/09 07:55:13;;;;;;;0.80;0.70;;;19.90;99.90;;;;;;5049889;28;20045;-64
2022/09/09 07:57:39;;;;;;;2.70;0.52;;;20.20;99.90;;;;;;5032062;28;20053;-65
2022/09/09 08:00:06;;;;;;;3.58;0.60;;;20.50;99.90;;;;;;5031935;28;20045;-65
2022/09/09 08:02:32;;;;;;;2.95;0.68;;;20.90;99.90;;;;;;5033336;28;20453;-66
2022/09/09 08:04:57;;;;;;;4.05;0.70;;;21.20;99.90;;;;;;5033900;28;20069;-66
2022/09/09 08:07:24;;;;;;;2.30;0.85;;;21.50;99.90;;;;;;5033832;28;20041;-65
2022/09/09 08:09:50;;;;;;;0.85;0.50;;;21.30;99.90;;;;;;5033446;28;20079;-65
2022/09/09 08:12:16;;;;;;;1.90;0.70;;;21.10;99.90;;;;;;5033660;28;20041;-65
2022/09/09 08:14:42;;;;;;;3.92;0.40;;;20.90;99.90;;;;;;5033870;28;20041;-65
2022/09/09 08:17:08;;;;;;;0.50;0.38;;;20.50;99.90;;;;;;5033759;28;20049;-66
2022/09/09 08:19:35;;;;;;;1.65;0.57;;;20.90;99.90;;;;;;5033631;28;20049;-67
2022/09/09 08:22:02;;;;;;;1.83;0.40;;;20.90;99.80;;;;;;5033855;28;20386;-65
2022/09/09 08:24:28;;;;;;;3.00;0.70;;;21.30;99.90;;;;;;5033583;28;20037;-67
2022/09/09 08:26:56;;;;;;;2.97;0.50;;;21.10;98.60;;;;;;5052351;28;20155;-65
2022/09/09 08:29:23;;;;;;;2.00;0.70;;;20.70;99.90;;;;;;5053552;28;20052;-65
2022/09/09 08:31:57;;;;;;;3.55;0.50;;;20.50;99.70;;;;;;5053507;28;20045;-64
2022/09/09 08:34:25;;;;;;;1.85;0.57;;;21.00;99.70;;;;;;5053513;28;20048;-65
2022/09/09 08:36:51;;;;;;;3.45;0.50;;;21.70;99.90;;;;;;5056063;28;20045;-65
2022/09/09 08:39:19;;;;;;;2.63;0.40;;;21.70;98.10;;;;;;5057245;28;20480;-65
2022/09/09 08:42:27;;;;;;;3.15;0.68;;;21.10;97.00;;;;;;5057116;28;20527;-65
2022/09/09 08:45:19;;;;;;;0.70;0.40;;;21.30;98.90;;;;;;5036626;28;20489;-65
2022/09/09 08:48:01;;;;;;;2.80;0.45;;;21.10;98.20;;;;;;5056953;28;20104;-64
2022/09/09 08:50:35;;;;;;;2.25;0.52;;;20.90;97.60;;;;;;5057062;28;20036;-64
2022/09/09 08:53:19;;;;;;;0.85;0.43;;;20.50;98.50;;;;;;5057066;28;20033;-65
2022/09/09 08:55:55;;;;;;;2.80;0.52;;;20.50;99.20;;;;;;5056857;28;20040;-64
2022/09/09 08:58:24;;;;;;;4.35;0.35;;;19.80;97.60;;;;;;5056762;28;20048;-64
2022/09/09 09:01:01;;;;;;;2.95;0.30;;;20.00;97.40;;;;;;5056824;28;20032;-64
2022/09/09 09:03:36;;;;;;;1.67;0.32;;;20.40;97.70;;;;;;5056928;28;20033;-64
2022/09/09 09:06:27;;;;;;;3.47;0.40;;;20.40;97.10;;;;;;5056684;28;20124;-64
2022/09/09 09:09:08;;;;;;;1.63;0.30;;;20.20;96.40;;;;;;5056755;28;20041;-65
2022/09/09 09:11:49;;;;;;;2.05;0.40;;;20.20;96.90;;;;;;5056625;28;20116;-64
2022/09/09 09:14:24;;;;;;;1.73;0.43;;;19.90;96.60;;;;;;5056555;28;20044;-64
2022/09/09 09:16:56;;;;;;;3.33;0.60;;;20.20;96.60;;;;;;5056542;28;20129;-66
2022/09/09 09:19:23;;;;;;;2.97;0.75;;;20.30;96.00;;;;;;5056504;28;20049;-67
2022/09/09 09:22:10;;;;;;;1.85;0.40;;;20.10;96.90;;;;;;5056481;28;20041;-64
2022/09/09 09:24:47;;;;;;;2.03;0.40;;;20.10;96.50;;;;;;5056296;28;20083;-64
2022/09/09 09:27:18;;;;;;;4.95;0.90;;;20.20;96.50;;;;;;5056363;28;20110;-64
2022/09/09 09:29:45;;;;;;;3.60;0.60;;;20.80;96.80;;;;;;5056338;28;20068;-66
2022/09/09 09:32:18;;;;;;;0.70;0.22;;;20.30;95.50;;;;;;5056349;28;20049;-64
2022/09/09 09:34:49;;;;;;;1.42;0.40;;;20.00;95.60;;;;;;5056353;28;20048;-64
2022/09/09 09:37:29;;;;;;;5.10;0.63;;;19.90;96.00;;;;;;5055898;28;20045;-64
2022/09/09 09:39:55;;;;;;;2.75;0.70;;;20.00;97.40;;;;;;5055990;28;20053;-66
2022/09/09 09:42:21;;;;;;;0.77;0.30;;;20.00;97.00;;;;;;5055995;28;20037;-65
2022/09/09 09:44:46;;;;;;;3.45;0.40;;;19.60;95.30;;;;;;5055900;28;20438;-64
2022/09/09 09:47:19;;;;;;;0.50;0.30;;;20.10;97.00;;;;;;5055282;28;20112;-64
2022/09/09 09:49:56;;;;;;;1.58;0.40;;;21.20;96.80;;;;;;5055888;28;20048;-64
2022/09/09 09:52:30;;;;;;;1.05;0.30;;;21.30;96.60;;;;;;5055952;28;20074;-64
2022/09/09 09:54:59;;;;;;;1.45;0.30;;;22.00;95.60;;;;;;5055936;28;20049;-67
2022/09/09 09:57:30;;;;;;;1.40;0.40;;;21.80;93.20;;;;;;5055870;28;20052;-64
2022/09/09 10:00:15;;;;;;;1.33;0.30;;;21.80;93.50;;;;;;5055641;28;20037;-64
2022/09/09 10:02:43;;;;;;;2.33;0.50;;;21.50;93.80;;;;;;5055622;28;20076;-64
2022/09/09 10:05:15;;;;;;;3.67;0.52;;;22.00;94.50;;;;;;5055476;28;20516;-64
2022/09/09 10:07:43;;;;;;;0.88;0.38;;;22.40;94.00;;;;;;5055142;28;20510;-64
2022/09/09 10:10:25;;;;;;;1.25;0.40;;;21.80;92.80;;;;;;5035622;28;20136;-64
2022/09/09 10:13:08;;;;;;;2.33;0.40;;;22.10;93.30;;;;;;5035492;28;20060;-64
2022/09/09 10:15:39;;;;;;;3.20;0.45;;;22.40;93.10;;;;;;5035440;28;20045;-67
2022/09/09 10:18:38;;;;;;;2.08;0.30;;;23.00;92.80;;;;;;5035391;28;20053;-67
2022/09/09 10:21:45;;;;;;;2.50;1.15;;;23.00;90.80;;;;;;5035368;28;20041;-64
2022/09/09 10:24:44;;;;;;;4.72;0.45;;;23.20;90.80;;;;;;5032453;28;20045;-64
2022/09/09 10:27:16;;;;;;;4.45;0.25;;;22.40;91.00;;;;;;5035344;28;20045;-64
2022/09/09 10:29:55;;;;;;;1.55;0.63;;;22.50;91.90;;;;;;5035249;28;20041;-66
2022/09/09 10:32:39;;;;;;;2.63;0.30;;;22.70;92.10;;;;;;5035217;28;20112;-64
2022/09/09 10:35:36;;;;;;;1.77;1.02;;;23.10;90.80;;;;;;5035087;28;20037;-64
2022/09/09 10:38:17;;;;;;;1.33;0.20;;;22.90;88.70;;;;;;5035035;28;20059;-64
2022/09/09 10:40:51;;;;;;;1.10;0.50;;;;;;;;;;5035234;28;20045;-65
2022/09/09 10:43:55;;;;;;;1.08;0.40;;;23.10;89.10;;;;;;5035162;28;20507;-67
2022/09/09 10:46:35;;;;;;;1.67;0.40;;;22.50;88.60;;;;;;5034943;28;20041;-64
2022/09/09 10:49:10;;;;;;;0.88;0.32;;;22.20;89.20;;;;;;5034905;28;20513;-64
2022/09/09 10:51:40;;;;;;;0.80;0.40;;;22.00;91.10;;;;;;5034775;28;20094;-64
2022/09/09 10:54:17;;;;;;;2.25;0.30;;;22.00;91.00;;;;;;5034829;28;20068;-67
2022/09/09 10:56:50;;;;;;;2.47;0.43;;;21.60;90.30;;;;;;5034701;28;20041;-64
2022/09/09 10:59:26;;;;;;;0.38;0.20;;;21.80;92.00;;;;;;5049735;28;20049;-64
2022/09/09 11:02:19;;;;;;;0.98;0.40;;;21.70;91.60;;;;;;5046076;28;20567;-64
2022/09/09 11:04:59;;;;;;;0.80;0.30;;;21.80;92.10;;;;;;5054540;28;20056;-63
2022/09/09 11:07:33;;;;;;;0.63;0.30;;;21.70;91.00;;;;;;5054517;28;20041;-63
2022/09/09 11:10:06;;;;;;;1.65;0.20;;;21.80;91.40;;;;;;5054530;28;20484;-63
2022/09/09 11:12:36;;;;;;;0.63;0.30;;;21.70;91.50;;;;;;5054544;28;20091;-63
2022/09/09 11:15:14;;;;;;;1.15;0.30;;;21.60;90.00;;;;;;5054392;28;20098;-63
2022/09/09 11:18:02;;;;;;;1.65;0.30;;;21.40;89.30;;;;;;5054350;28;20057;-63
2022/09/09 11:20:28;;;;;;;0.55;0.20;;;21.70;91.40;;;;;;5054262;28;20040;-63
2022/09/09 11:23:05;;;;;;;1.65;0.10;;;21.90;90.20;;;;;;5054221;28;20124;-63
2022/09/09 11:25:38;;;;;;;1.00;0.25;;;21.80;90.50;;;;;;5054203;28;20229;-64
2022/09/09 11:28:22;;;;;;;2.25;0.55;;;22.70;91.30;;;;;;5054237;28;20048;-63
2022/09/09 11:31:13;;;;;;;2.08;0.50;;;23.10;91.50;;;;;;5052753;28;20385;-64
2022/09/09 11:34:16;;;;;;;1.88;0.57;;;23.20;90.60;;;;;;5053958;28;20033;-65
2022/09/09 11:37:04;;;;;;;1.92;0.40;;;23.00;91.00;;;;;;5037591;28;20135;-63
2022/09/09 11:39:30;;;;;;;1.73;0.70;;;22.40;90.10;;;;;;5051718;28;20044;-63
2022/09/09 11:42:14;;;;;;;1.13;0.20;;;22.10;90.60;;;;;;5052252;28;20120;-64
2022/09/09 11:44:41;;;;;;;2.63;0.38;;;22.20;90.90;;;;;;5052562;28;20068;-63
2022/09/09 11:47:23;;;;;;;3.33;0.22;;;21.90;90.90;;;;;;5054028;28;20037;-63
2022/09/09 11:49:49;;;;;;;4.28;0.40;;;21.80;90.70;;;;;;5053792;28;20041;-63
2022/09/09 11:52:35;;;;;;;1.15;0.20;;;22.50;91.10;;;;;;5053753;28;20037;-63
2022/09/09 11:55:26;;;;;;;1.63;0.47;;;23.10;91.60;;;;;;5053821;28;20048;-63
2022/09/09 11:58:11;;;;;;;0.65;0.30;;;22.80;89.50;;;;;;5053750;28;20045;-63
2022/09/09 12:00:41;;;;;;;2.63;0.35;;;22.70;89.20;;;;;;5052905;28;20044;-64
2022/09/09 12:03:48;;;;;;;0.35;0.20;;;22.70;91.30;;;;;;5045243;28;20076;-63
2022/09/09 12:06:26;;;;;;;3.03;0.38;;;22.80;88.70;;;;;;5031510;28;20164;-63
2022/09/09 12:08:57;;;;;;;0.70;0.30;;;22.60;89.40;;;;;;5050979;28;20044;-65
2022/09/09 12:11:28;;;;;;;1.08;0.47;;;22.40;89.50;;;;;;5055610;28;20131;-63
2022/09/09 12:14:03;;;;;;;0.20;0.10;;;22.10;87.90;;;;;;5056118;28;20052;-63
2022/09/09 12:16:36;;;;;;;2.05;0.38;;;21.90;88.70;;;;;;5055991;28;20045;-64
2022/09/09 12:19:18;;;;;;;1.20;0.30;;;21.80;90.60;;;;;;5076846;28;20040;-64
2022/09/09 12:21:58;;;;;;;1.85;0.40;;;21.90;90.90;;;;;;5075839;28;20044;-64
2022/09/09 12:24:36;;;;;;;;;;;22.10;90.70;;;;;;5076484;28;20032;-63
2022/09/09 12:27:32;;;;;;;0.95;0.28;;;21.80;90.20;;;;;;5075543;28;20358;-67
2022/09/09 12:30:11;;;;;;;2.67;0.40;;;21.90;91.00;;;;;;5076917;28;20040;-64
2022/09/09 12:32:37;;;;;;;2.53;0.70;;;21.80;90.50;;;;;;5077404;28;20074;-63
2022/09/09 12:35:09;;;;;;;1.83;0.40;;;21.70;91.10;;;;;;5077295;28;20093;-64
2022/09/09 12:37:37;;;;;;;2.05;0.50;;;21.70;90.80;;;;;;5077218;28;20484;-64
2022/09/09 12:40:23;;;;;;;3.83;0.22;;;21.70;90.30;;;;;;5077248;28;20040;-63
2022/09/09 12:42:50;;;;;;;1.77;0.30;;;21.50;91.50;;;;;;5077245;28;20044;-63
2022/09/09 12:45:28;;;;;;;1.73;0.55;;;21.60;91.60;;;;;;5077178;28;20487;-67
2022/09/09 12:48:03;;;;;;;1.90;0.52;;;21.70;92.10;;;;;;5077072;28;20051;-66
2022/09/09 12:50:37;;;;;;;2.20;0.43;;;21.30;91.50;;;;;;5077041;28;20040;-63
2022/09/09 12:53:26;;;;;;;0.63;0.30;;;21.30;91.70;;;;;;5076951;28;20052;-63
2022/09/09 12:55:58;;;;;;;2.72;0.45;;;21.50;93.40;;;;;;5059295;28;20037;-63
2022/09/09 12:58:25;;;;;;;2.90;0.30;;;22.00;91.70;;;;;;5056808;28;20123;-63
2022/09/09 13:00:55;;;;;;;0.98;0.30;;;22.30;93.20;;;;;;5056708;28;20037;-63
2022/09/09 13:03:22;;;;;;;1.23;0.20;;;22.50;92.80;;;;;;5056727;28;20037;-63
2022/09/09 13:05:48;;;;;;;1.42;0.52;;;22.70;91.30;;;;;;5056871;28;20045;-64
2022/09/09 13:08:18;;;;;;;2.97;0.30;;;22.60;91.10;;;;;;5056872;28;20037;-64
2022/09/09 13:10:54;;;;;;;4.22;0.60;;;22.20;91.00;;;;;;5056717;28;20033;-64
2022/09/09 13:13:31;;;;;;;2.83;0.43;;;22.00;91.30;;;;;;5056707;28;20060;-64
2022/09/09 13:16:01;;;;;;;0.40;0.17;;;22.90;92.60;;;;;;5056731;28;20040;-63
2022/09/09 13:18:30;;;;;;;4.18;0.73;;;22.90;91.20;;;;;;5056661;28;20114;-63